Terminal Aerodrome Forecast
Issued by NWS Omaha/Valley, NE

Home | Current Version | Previous Version | Text Only | Print | Product List | Glossary On
Versions: 1 2 3 4 5 6 7 8 9 10 11 12 13 14 15 16 17 18 19 20 21 22 23 24 25 26 27 28 29 30 31 32 33 34 35 36 37
000
FTUS43 KOAX 050803 AAA
TAFLNK
TAF AMD
KLNK 050803Z 0508/0606 12005KT P6SM SCT025 BKN050
      TEMPO 0509/0512 5SM BR BKN025
     FM051500 12008KT P6SM OVC040
     FM052000 14009KT P6SM SCT100=

USA.gov is the U.S. government's official web portal to all federal, state and local government web resources and services.